Time;durP1;ratioP1;P1;durP2;ratioP2;P2;SDS_P1;SDS_P2;PMS_P1;PMS_P2;Temp;Humidity;BMP_temperature;BMP_pressure;BME280_temperature;BME280_humidity;BME280_pressure;Samples;Min_cycle;Max_cycle;Signal;HPM_P1;HPM_P2
2023/01/12 00:02:03;;;;;;;7.53;1.85;;;;;;;6.15;100.00;100493.84;4984248;28;20486;-76
2023/01/12 00:04:29;;;;;;;7.32;1.55;;;;;;;6.13;100.00;100492.97;4986851;28;20096;-75
2023/01/12 00:06:56;;;;;;;6.90;2.22;;;;;;;6.13;100.00;100498.22;4976686;28;20038;-75
2023/01/12 00:09:21;;;;;;;8.95;1.60;;;;;;;6.14;100.00;100499.97;4984759;28;20032;-75
2023/01/12 00:11:46;;;;;;;9.10;2.00;;;;;;;6.14;100.00;100489.47;4984787;28;20038;-75
2023/01/12 00:14:12;;;;;;;6.20;1.48;;;;;;;6.07;100.00;100484.16;4984753;28;20045;-75
2023/01/12 00:16:37;;;;;;;9.38;1.70;;;;;;;6.00;100.00;100480.59;4985289;28;20129;-75
2023/01/12 00:19:08;;;;;;;5.93;1.40;;;;;;;5.94;100.00;100477.88;4983365;28;20129;-76
2023/01/12 00:21:37;;;;;;;8.25;1.35;;;;;;;5.87;100.00;100476.91;4976858;28;20038;-75
2023/01/12 00:24:03;;;;;;;7.47;1.85;;;;;;;5.80;100.00;100471.59;4984734;28;20041;-74
2023/01/12 00:26:29;;;;;;;6.43;1.50;;;;;;;5.77;100.00;100487.28;4982867;28;20043;-75
2023/01/12 00:28:54;;;;;;;7.07;1.95;;;;;;;5.70;100.00;100476.69;4985892;28;20133;-73
2023/01/12 00:31:19;;;;;;;7.00;1.50;;;;;;;5.68;100.00;100481.03;4981805;28;20034;-74
2023/01/12 00:33:45;;;;;;;4.15;1.40;;;;;;;5.65;100.00;100485.34;4986064;28;20041;-75
2023/01/12 00:36:12;;;;;;;6.57;1.58;;;;;;;5.61;100.00;100489.69;4981922;28;20039;-75
2023/01/12 00:38:38;;;;;;;7.93;1.30;;;;;;;5.56;100.00;100496.59;4972093;28;20043;-75
2023/01/12 00:41:07;;;;;;;4.78;1.20;;;;;;;5.55;100.00;100494.81;4983546;28;20049;-75
2023/01/12 00:46:16;;;;;;;8.88;1.33;;;;;;;5.47;100.00;100499.94;4982127;28;20194;-75
2023/01/12 00:48:42;;;;;;;7.90;1.52;;;;;;;5.51;100.00;100481.69;4986212;28;20076;-75
2023/01/12 00:51:07;;;;;;;7.38;1.42;;;;;;;5.53;100.00;100480.84;4982739;28;20086;-75
2023/01/12 00:53:33;;;;;;;6.68;1.45;;;;;;;5.49;100.00;100481.66;4984095;28;20073;-75
2023/01/12 00:56:02;;;;;;;6.03;1.45;;;;;;;5.45;100.00;100485.09;4983087;28;20043;-75
2023/01/12 00:58:28;;;;;;;8.18;1.55;;;;;;;5.39;100.00;100483.25;4998697;23;20479;-75
2023/01/12 01:00:54;;;;;;;3.08;1.20;;;;;;;5.41;100.00;100492.00;4993826;28;20035;-75
2023/01/12 01:03:19;;;;;;;8.02;1.27;;;;;;;5.43;100.00;100485.06;4993959;28;20038;-75
2023/01/12 01:05:44;;;;;;;5.43;1.13;;;;;;;5.44;100.00;100492.06;4993073;28;20108;-75
2023/01/12 01:08:10;;;;;;;6.68;0.90;;;;;;;5.46;100.00;100490.34;5008729;28;20034;-75
2023/01/12 01:10:35;;;;;;;5.57;1.20;;;;;;;5.45;100.00;100477.25;4992791;28;20121;-75
2023/01/12 01:13:00;;;;;;;10.15;1.27;;;;;;;5.42;100.00;100472.84;4993823;28;20470;-75
2023/01/12 01:15:26;;;;;;;7.50;1.60;;;;;;;5.42;100.00;100478.09;4993272;28;20400;-75
2023/01/12 01:17:51;;;;;;;5.07;0.98;;;;;;;5.45;100.00;100482.50;4993124;28;20486;-75
2023/01/12 01:20:16;;;;;;;11.07;1.48;;;;;;;5.44;100.00;100492.06;4992290;28;20485;-75
2023/01/12 01:22:42;;;;;;;9.95;1.33;;;;;;;5.43;100.00;100492.91;4993610;28;20042;-75
2023/01/12 01:25:07;;;;;;;5.90;1.50;;;;;;;5.48;100.00;100506.09;4993483;28;20034;-75
2023/01/12 01:27:33;;;;;;;5.57;1.15;;;;;;;5.45;100.00;100487.72;4992866;28;20035;-75
2023/01/12 01:29:58;;;;;;;5.35;1.13;;;;;;;5.48;100.00;100482.53;4993244;28;20087;-75
2023/01/12 01:32:23;;;;;;;6.50;1.15;;;;;;;5.52;100.00;100475.59;4993506;28;20038;-75
2023/01/12 01:34:49;;;;;;;5.18;1.13;;;;;;;5.54;100.00;100487.84;4993392;28;20042;-75
2023/01/12 01:37:14;;;;;;;4.30;1.15;;;;;;;5.56;100.00;100480.88;4991859;28;20077;-75
2023/01/12 01:39:39;;;;;;;6.13;1.30;;;;;;;5.60;100.00;100487.03;4992970;28;20057;-75
2023/01/12 01:42:26;;;;;;;5.78;1.17;;;;;;;5.58;100.00;100478.28;4993203;28;20034;-75
2023/01/12 01:44:53;;;;;;;5.97;1.27;;;;;;;5.55;100.00;100481.72;4990208;28;20042;-75
2023/01/12 01:47:35;;;;;;;6.15;1.00;;;;;;;5.56;100.00;100482.63;4992469;28;20038;-75
2023/01/12 01:50:04;;;;;;;9.07;1.15;;;;;;;5.61;100.00;100491.44;4990026;28;20038;-75
2023/01/12 01:52:35;;;;;;;6.63;1.42;;;;;;;5.79;100.00;100488.13;4993141;28;20041;-75
2023/01/12 01:55:19;;;;;;;6.05;1.20;;;;;;;5.98;100.00;100490.19;4992885;28;20504;-75
2023/01/12 01:57:59;;;;;;;3.92;0.85;;;;;;;6.15;100.00;100483.38;4991840;28;20171;-75
2023/01/12 02:00:25;;;;;;;2.60;0.80;;;;;;;6.31;100.00;100483.53;4990281;28;20283;-75
2023/01/12 02:02:51;;;;;;;3.95;1.27;;;;;;;6.43;100.00;100488.91;4991623;28;20072;-75
2023/01/12 02:05:21;;;;;;;6.93;1.42;;;;;;;6.54;100.00;100487.25;4992549;28;20076;-75
2023/01/12 02:07:48;;;;;;;9.18;2.53;;;;;;;6.64;100.00;100479.50;4987373;28;20096;-75
2023/01/12 02:10:14;;;;;;;4.35;0.98;;;;;;;6.68;100.00;100474.31;4992427;28;20477;-75
2023/01/12 02:18:34;;;;;;;6.72;1.30;;;;;;;6.29;100.00;100438.97;4989307;28;20030;-75
2023/01/12 02:21:11;;;;;;;7.40;1.00;;;;;;;6.24;100.00;100437.19;4989024;28;20038;-75
2023/01/12 02:23:45;;;;;;;7.13;1.27;;;;;;;6.11;100.00;100423.06;4992535;28;20030;-75
2023/01/12 02:26:35;;;;;;;8.18;1.48;;;;;;;6.03;100.00;100409.88;4988408;28;20040;-75
2023/01/12 02:29:28;;;;;;;3.63;0.88;;;;;;;5.99;100.00;100418.56;4989170;28;20114;-75
2023/01/12 02:32:23;;;;;;;4.07;1.40;;;;;;;5.94;100.00;100422.88;4989786;28;20046;-75
2023/01/12 02:35:23;;;;;;;8.23;1.08;;;;;;;5.89;100.00;100406.19;4990339;28;20409;-75
2023/01/12 02:38:08;;;;;;;3.88;0.63;;;;;;;5.87;100.00;100407.94;4987549;28;20030;-75
2023/01/12 02:40:43;;;;;;;4.47;1.00;;;;;;;5.86;100.00;100406.16;4991906;28;20038;-75
2023/01/12 02:43:26;;;;;;;3.50;0.80;;;;;;;5.84;100.00;100410.50;4989164;28;20034;-75
2023/01/12 02:46:21;;;;;;;5.90;1.10;;;;;;;5.86;100.00;100400.94;4988613;28;20444;-75
2023/01/12 02:49:06;;;;;;;5.93;0.82;;;;;;;5.92;100.00;100400.97;4989052;28;20153;-75
2023/01/12 02:51:56;;;;;;;4.70;0.93;;;;;;;6.04;100.00;100395.03;4988001;28;20046;-75
2023/01/12 02:54:23;;;;;;;4.07;0.80;;;;;;;6.17;100.00;100396.91;4991451;28;20113;-75
2023/01/12 02:57:09;;;;;;;6.03;0.95;;;;;;;6.23;100.00;100409.19;4990918;28;20049;-75
2023/01/12 02:59:37;;;;;;;6.95;1.20;;;;;;;6.29;100.00;100402.28;4988168;28;20078;-76
2023/01/12 03:02:07;;;;;;;5.97;0.70;;;;;;;6.38;100.00;100403.22;4986880;28;20049;-75
2023/01/12 03:04:33;;;;;;;6.32;1.05;;;;;;;6.43;100.00;100410.25;4991862;28;20081;-75
2023/01/12 03:06:58;;;;;;;3.92;0.90;;;;;;;6.48;100.00;100400.69;4987380;28;20034;-75
2023/01/12 03:09:33;;;;;;;5.95;0.95;;;;;;;6.57;100.00;100392.00;4991557;28;20035;-75
2023/01/12 03:12:08;;;;;;;4.75;0.85;;;;;;;6.66;100.00;100401.72;4990457;28;20034;-75
2023/01/12 03:14:37;;;;;;;9.43;1.13;;;;;;;6.77;100.00;100400.03;4991911;28;20477;-75
2023/01/12 03:17:07;;;;;;;6.95;1.27;;;;;;;6.84;99.98;100396.59;4991060;28;20030;-75
2023/01/12 03:19:33;;;;;;;3.67;0.93;;;;;;;6.94;99.66;100401.06;4991375;28;20045;-75
2023/01/12 03:22:06;;;;;;;8.93;1.48;;;;;;;6.96;99.37;100394.03;4991669;28;20026;-75
2023/01/12 03:24:40;;;;;;;6.97;1.00;;;;;;;7.05;98.50;100390.63;4988792;28;20448;-76
2023/01/12 03:27:30;;;;;;;3.97;0.70;;;;;;;7.09;98.43;100394.13;4990935;28;20038;-75
2023/01/12 03:30:04;;;;;;;6.30;1.08;;;;;;;7.10;97.95;100383.66;4990279;28;20073;-75
2023/01/12 03:32:30;;;;;;;7.25;1.10;;;;;;;7.16;98.11;100377.56;4988204;28;20058;-75
2023/01/12 03:34:56;;;;;;;7.47;0.98;;;;;;;7.19;97.91;100377.56;4991245;28;20505;-75
2023/01/12 03:37:28;;;;;;;7.00;1.00;;;;;;;7.17;97.86;100379.28;4987056;28;20082;-75
2023/01/12 03:40:08;;;;;;;8.45;1.10;;;;;;;7.18;98.01;100366.19;4991370;28;20030;-75
2023/01/12 03:42:49;;;;;;;6.70;1.30;;;;;;;7.26;97.32;100371.50;4989657;28;20030;-75
2023/01/12 03:45:30;;;;;;;5.28;0.98;;;;;;;7.26;97.91;100374.09;4988584;28;20409;-75
2023/01/12 03:48:10;;;;;;;4.70;1.10;;;;;;;7.27;97.25;100378.47;4991416;28;20053;-75
2023/01/12 03:50:45;;;;;;;8.30;0.85;;;;;;;7.34;97.84;100375.03;4991425;28;20042;-75
2023/01/12 03:53:13;;;;;;;8.40;1.55;;;;;;;7.32;97.67;100389.88;4987811;28;20038;-75
2023/01/12 03:55:39;;;;;;;10.73;2.83;;;;;;;7.32;98.12;100373.25;4990621;28;20042;-75
2023/01/12 03:58:04;;;;;;;7.90;1.05;;;;;;;7.36;98.50;100378.53;4991228;28;20121;-75
2023/01/12 04:00:30;;;;;;;8.90;0.93;;;;;;;7.39;97.54;100362.78;4991273;28;20129;-76
2023/01/12 04:03:13;;;;;;;5.82;1.00;;;;;;;7.38;97.53;100363.63;4991025;28;20057;-75
2023/01/12 04:05:40;;;;;;;4.22;0.88;;;;;;;7.40;98.13;100364.53;4987940;28;20125;-75
2023/01/12 04:08:07;;;;;;;4.95;0.90;;;;;;;7.43;97.89;100356.66;4986170;28;20046;-75
2023/01/12 04:10:32;;;;;;;7.75;1.30;;;;;;;7.43;98.24;100355.78;4990528;28;20027;-75
2023/01/12 04:12:57;;;;;;;6.75;1.35;;;;;;;7.37;98.51;100351.41;4991131;28;20085;-75
2023/01/12 04:15:23;;;;;;;3.50;0.90;;;;;;;7.38;99.34;100349.66;4998200;28;20042;-75
2023/01/12 04:17:48;;;;;;;8.98;1.40;;;;;;;7.35;97.78;100350.50;4990971;28;20037;-75
2023/01/12 04:20:14;;;;;;;5.57;1.00;;;;;;;7.42;98.29;100356.69;4989213;28;20038;-75
2023/01/12 04:22:42;;;;;;;6.65;1.08;;;;;;;7.43;98.58;100343.53;4993669;28;20129;-75
2023/01/12 04:25:08;;;;;;;4.68;0.95;;;;;;;7.47;96.48;100341.81;4994624;28;20042;-76
2023/01/12 04:27:34;;;;;;;8.30;1.08;;;;;;;7.53;96.59;100347.06;4993926;28;20052;-76
2023/01/12 04:29:59;;;;;;;9.00;0.93;;;;;;;7.57;96.21;100337.44;4994446;28;20505;-76
2023/01/12 04:32:24;;;;;;;6.53;1.00;;;;;;;7.60;95.11;100338.34;4993886;28;20117;-77
2023/01/12 04:34:50;;;;;;;9.85;1.30;;;;;;;7.64;94.96;100345.34;4994450;28;20022;-77
2023/01/12 04:37:15;;;;;;;6.63;1.05;;;;;;;7.67;95.25;100334.84;4990109;28;20034;-77
2023/01/12 04:39:40;;;;;;;4.47;1.05;;;;;;;7.67;93.70;100328.72;4990878;28;20042;-77
2023/01/12 04:42:59;;;;;;;5.55;1.02;;;;;;;7.68;93.93;100322.63;4993688;28;20405;-76
2023/01/12 04:44:51;;;;;;;7.05;1.05;;;;;;;7.70;93.46;100315.59;4994249;28;20096;-76
2023/01/12 04:47:16;;;;;;;4.93;0.88;;;;;;;7.76;93.48;100317.38;5001008;28;20030;-76
2023/01/12 04:49:42;;;;;;;7.82;1.05;;;;;;;7.76;93.58;100312.13;4993963;28;20038;-76
2023/01/12 04:52:07;;;;;;;7.10;1.15;;;;;;;7.73;92.30;100320.88;4994135;28;20168;-76
2023/01/12 04:54:32;;;;;;;8.48;1.10;;;;;;;7.78;92.58;100308.63;4993965;28;20121;-77
2023/01/12 04:56:58;;;;;;;5.45;1.30;;;;;;;7.80;93.00;100308.59;4993406;28;20136;-77
2023/01/12 04:59:23;;;;;;;7.10;1.05;;;;;;;7.83;91.61;100316.50;4993735;28;20104;-77
2023/01/12 05:01:48;;;;;;;6.88;1.17;;;;;;;7.84;91.99;100298.13;4993971;28;20507;-77
2023/01/12 05:04:14;;;;;;;6.50;1.02;;;;;;;7.88;92.39;100299.84;4993872;28;20497;-77
2023/01/12 05:06:39;;;;;;;5.10;0.90;;;;;;;7.93;91.83;100302.50;4991151;28;20501;-77
2023/01/12 05:11:48;;;;;;;6.55;1.23;;;;;;;7.94;91.61;100312.16;4990955;28;20485;-77
2023/01/12 05:14:13;;;;;;;11.18;1.52;;;;;;;7.99;90.52;100299.00;4993407;28;20053;-77
2023/01/12 05:16:39;;;;;;;6.57;1.35;;;;;;;8.01;90.56;100299.88;4991388;28;20026;-77
2023/01/12 05:19:04;;;;;;;6.95;1.50;;;;;;;8.03;90.51;100295.50;4993515;28;20088;-77
2023/01/12 05:21:29;;;;;;;6.32;1.02;;;;;;;8.13;90.57;100294.63;4998492;28;20548;-77
2023/01/12 05:23:55;;;;;;;4.55;1.20;;;;;;;8.13;89.95;100302.53;5002797;28;20504;-77
2023/01/12 05:26:20;;;;;;;7.10;1.65;;;;;;;8.12;89.81;100290.22;4993808;28;20046;-77
2023/01/12 05:28:49;;;;;;;4.95;1.13;;;;;;;8.12;90.40;100284.97;5002025;28;20034;-77
2023/01/12 05:31:14;;;;;;;5.82;1.23;;;;;;;8.10;89.92;100270.97;5001717;28;20046;-77
2023/01/12 05:33:41;;;;;;;5.20;1.08;;;;;;;8.08;90.30;100288.50;5002863;28;20564;-77
2023/01/12 05:36:12;;;;;;;8.38;1.13;;;;;;;8.08;90.46;100283.25;5000813;28;20077;-77
2023/01/12 05:38:37;;;;;;;9.68;1.75;;;;;;;8.00;90.48;100274.47;4984694;28;20035;-77
2023/01/12 05:41:06;;;;;;;9.02;1.00;;;;;;;8.02;90.66;100275.38;4992554;28;20114;-77
2023/01/12 05:43:49;;;;;;;5.07;1.35;;;;;;;8.02;90.79;100276.25;4993234;28;20031;-77
2023/01/12 05:46:20;;;;;;;4.93;1.15;;;;;;;8.03;90.66;100275.34;4992379;28;20524;-77
2023/01/12 05:48:46;;;;;;;5.90;1.38;;;;;;;8.03;91.18;100280.59;4993131;28;20069;-77
2023/01/12 05:51:11;;;;;;;5.53;0.73;;;;;;;8.03;90.79;100269.22;4992923;28;20081;-77
2023/01/12 05:53:37;;;;;;;5.35;1.15;;;;;;;8.02;91.12;100267.47;4992229;28;20038;-77
2023/01/12 05:56:24;;;;;;;11.25;1.42;;;;;;;8.02;90.55;100267.47;4990124;28;20486;-77
2023/01/12 05:58:55;;;;;;;12.07;5.18;;;;;;;7.98;90.81;100260.47;4987340;28;20030;-77
2023/01/12 06:01:21;;;;;;;6.38;1.40;;;;;;;7.96;90.89;100263.06;4992137;28;20893;-77
2023/01/12 06:03:55;;;;;;;5.80;1.23;;;;;;;7.90;90.91;100266.59;4992736;28;20033;-77
2023/01/12 06:06:22;;;;;;;7.10;1.40;;;;;;;7.98;89.77;100261.31;4988757;28;20030;-77
2023/01/12 06:08:50;;;;;;;9.07;1.52;;;;;;;8.08;90.17;100267.47;4989610;28;20105;-77
2023/01/12 06:14:00;;;;;;;12.73;2.58;;;;;;;8.19;89.65;100272.72;4991279;28;20038;-77
2023/01/12 06:16:27;;;;;;;8.85;1.50;;;;;;;8.27;89.49;100269.19;4990884;28;20052;-77
2023/01/12 06:18:53;;;;;;;12.63;1.83;;;;;;;8.32;88.84;100274.47;4992937;28;20117;-77
2023/01/12 06:21:18;;;;;;;7.35;1.33;;;;;;;8.32;88.24;100282.34;4987982;28;20117;-77
2023/01/12 06:23:43;;;;;;;5.45;1.58;;;;;;;8.39;88.80;100265.72;4991823;28;20062;-77
2023/01/12 06:26:09;;;;;;;7.40;0.82;;;;;;;8.47;88.61;100265.72;4991175;28;20031;-77
2023/01/12 06:28:36;;;;;;;8.27;1.13;;;;;;;8.47;87.96;100269.22;4992007;28;20030;-77
2023/01/12 06:31:03;;;;;;;4.95;1.05;;;;;;;8.49;87.73;100267.47;4992140;28;20113;-77
2023/01/12 06:33:30;;;;;;;7.28;1.45;;;;;;;8.51;87.57;100262.19;4992422;28;20133;-77
2023/01/12 06:35:55;;;;;;;4.78;1.35;;;;;;;8.52;88.11;100264.81;4991565;28;20069;-77
2023/01/12 06:38:23;;;;;;;6.40;1.65;;;;;;;8.48;88.19;100268.31;4986737;28;20090;-77
2023/01/12 06:40:49;;;;;;;6.00;0.88;;;;;;;8.54;87.95;100262.16;5003073;28;20034;-77
2023/01/12 06:43:15;;;;;;;9.20;1.30;;;;;;;8.56;88.09;100261.28;4991795;28;20056;-77
2023/01/12 06:45:41;;;;;;;6.32;1.15;;;;;;;8.56;87.86;100263.06;4987651;28;20120;-77
2023/01/12 06:48:06;;;;;;;5.18;1.08;;;;;;;8.54;88.55;100262.16;4991516;28;20752;-77
2023/01/12 06:50:32;;;;;;;5.13;1.17;;;;;;;8.60;89.14;100266.56;4991864;28;20030;-77
2023/01/12 06:53:02;;;;;;;10.63;2.08;;;;;;;8.60;88.29;100267.44;4991502;28;20044;-77
2023/01/12 06:55:27;;;;;;;7.28;1.40;;;;;;;8.62;87.30;100270.94;4989762;28;20034;-77
2023/01/12 06:57:53;;;;;;;6.75;1.45;;;;;;;8.68;87.00;100260.41;4991523;28;20455;-77
2023/01/12 07:00:18;;;;;;;7.38;1.20;;;;;;;8.73;87.25;100268.28;5004408;23;20045;-76
2023/01/12 07:02:44;;;;;;;7.30;1.00;;;;;;;8.73;87.39;100269.16;4990716;28;20050;-76
2023/01/12 07:05:09;;;;;;;5.90;1.60;;;;;;;8.77;87.48;100265.63;4991797;28;20188;-77
2023/01/12 07:07:36;;;;;;;5.93;1.20;;;;;;;8.82;86.42;100265.59;4987479;28;20088;-77
2023/01/12 07:10:02;;;;;;;9.52;1.20;;;;;;;8.86;87.14;100274.41;4990267;28;20045;-78
2023/01/12 07:12:28;;;;;;;5.70;1.85;;;;;;;8.81;87.43;100278.78;4991527;28;20050;-77
2023/01/12 07:14:55;;;;;;;3.53;0.73;;;;;;;8.78;86.84;100267.38;4991736;28;20053;-78
2023/01/12 07:17:20;;;;;;;3.20;0.45;;;;;;;8.80;87.11;100266.50;4998535;28;20045;-76
2023/01/12 07:19:45;;;;;;;3.75;0.68;;;;;;;8.85;87.51;100265.59;4991368;28;20026;-78
2023/01/12 07:22:11;;;;;;;6.30;0.70;;;;;;;8.89;87.72;100263.84;4991685;28;20448;-78
2023/01/12 07:24:36;;;;;;;2.65;0.60;;;;;;;8.88;86.88;100267.34;4991738;28;20452;-78
2023/01/12 07:27:01;;;;;;;5.50;0.80;;;;;;;8.88;87.02;100264.72;4990970;28;20390;-77
2023/01/12 07:29:27;;;;;;;4.55;0.70;;;;;;;8.86;87.34;100261.22;4991421;28;20035;-78
2023/01/12 07:31:52;;;;;;;5.75;0.80;;;;;;;8.84;87.26;100263.00;4988641;28;20031;-78
2023/01/12 07:34:18;;;;;;;5.32;0.60;;;;;;;8.82;87.76;100262.97;4990501;28;20117;-78
2023/01/12 07:36:43;;;;;;;5.68;0.73;;;;;;;8.81;87.40;100269.13;4987129;28;20045;-78
2023/01/12 07:39:12;;;;;;;4.53;1.27;;;;;;;8.74;88.09;100270.91;4991325;28;20046;-77
2023/01/12 07:44:21;;;;;;;9.02;1.33;;;;;;;8.62;88.40;100260.44;4990967;28;20034;-78
2023/01/12 07:46:49;;;;;;;4.65;0.70;;;;;;;8.62;88.72;100259.53;4990763;28;20041;-77
2023/01/12 07:49:15;;;;;;;7.18;0.98;;;;;;;8.63;88.66;100259.53;4991331;28;20049;-77
2023/01/12 07:51:40;;;;;;;5.97;1.90;;;;;;;8.64;89.07;100263.03;4990866;28;20038;-78
2023/01/12 07:54:06;;;;;;;3.97;0.63;;;;;;;8.62;89.15;100264.78;4991426;28;20563;-77
2023/01/12 07:56:31;;;;;;;5.68;1.05;;;;;;;8.58;89.18;100261.31;4991563;28;20461;-77
2023/01/12 07:58:56;;;;;;;7.53;0.90;;;;;;;8.47;89.80;100256.06;4995144;28;20026;-77
2023/01/12 08:01:22;;;;;;;3.83;0.65;;;;;;;8.51;89.41;100256.91;4994744;28;20081;-78
2023/01/12 08:03:47;;;;;;;4.70;0.95;;;;;;;8.49;89.56;100251.69;4994993;28;20418;-77
2023/01/12 08:06:12;;;;;;;7.15;0.80;;;;;;;8.50;90.53;100240.28;4993544;28;20129;-78
2023/01/12 08:08:38;;;;;;;3.58;0.40;;;;;;;8.51;90.09;100249.03;4991959;28;20046;-76
2023/01/12 08:11:08;;;;;;;12.75;0.98;;;;;;;8.53;89.94;100249.91;4994350;28;20105;-77
2023/01/12 08:13:34;;;;;;;3.63;0.50;;;;;;;8.56;89.92;100247.25;4993483;28;20122;-77
2023/01/12 08:16:05;;;;;;;7.55;0.90;;;;;;;8.49;90.73;100251.69;4993807;28;20194;-77
2023/01/12 08:18:43;;;;;;;5.80;0.63;;;;;;;8.56;90.81;100245.50;4992386;28;20030;-76
2023/01/12 08:21:13;;;;;;;3.53;0.65;;;;;;;8.63;90.15;100254.28;4994447;28;20042;-77
2023/01/12 08:23:44;;;;;;;5.00;1.17;;;;;;;8.68;90.23;100244.63;4991471;28;20049;-78
2023/01/12 08:26:14;;;;;;;3.10;0.50;;;;;;;8.70;90.42;100245.50;4993874;28;20497;-77
2023/01/12 08:28:45;;;;;;;7.82;0.77;;;;;;;8.74;90.36;100239.31;4987174;28;20128;-78
2023/01/12 08:31:12;;;;;;;4.60;0.70;;;;;;;8.76;90.06;100245.47;4992059;28;20754;-78
2023/01/12 08:33:39;;;;;;;4.22;0.80;;;;;;;8.80;90.33;100237.56;4994622;28;20038;-77
2023/01/12 08:36:07;;;;;;;6.20;0.80;;;;;;;8.81;90.25;100244.59;4993668;28;20038;-77
2023/01/12 08:38:33;;;;;;;5.97;0.80;;;;;;;8.85;89.43;100241.03;4993030;28;20045;-78
2023/01/12 08:46:25;;;;;;;6.18;0.50;;;;;;;9.15;89.97;100214.59;4989679;28;20121;-76
2023/01/12 08:48:52;;;;;;;3.25;0.60;;;;;;;9.15;88.14;100217.22;4994083;28;20129;-77
2023/01/12 08:51:18;;;;;;;6.47;0.60;;;;;;;9.23;88.05;100216.31;4993748;28;20034;-76
2023/01/12 08:53:43;;;;;;;4.75;0.88;;;;;;;9.16;87.75;100215.47;4994173;28;20030;-77
2023/01/12 08:56:09;;;;;;;7.30;2.70;;;;;;;9.22;88.10;100207.50;4992968;28;20514;-76
2023/01/12 08:58:34;;;;;;;3.65;0.65;;;;;;;9.28;88.19;100207.50;4994362;28;20637;-77
2023/01/12 09:01:08;;;;;;;6.00;0.50;;;;;;;9.29;87.39;100211.00;4993469;28;20513;-77
2023/01/12 09:03:34;;;;;;;4.03;0.50;;;;;;;9.27;87.64;100205.72;4993841;28;20097;-76
2023/01/12 09:06:08;;;;;;;5.85;0.60;;;;;;;9.36;87.42;100213.59;4992893;28;20117;-77
2023/01/12 09:08:33;;;;;;;5.03;1.75;;;;;;;9.40;87.38;100206.53;4988166;28;20117;-78
2023/01/12 09:11:03;;;;;;;5.45;1.17;;;;;;;9.41;86.76;100205.66;4993449;28;20569;-78
2023/01/12 09:13:29;;;;;;;5.68;0.70;;;;;;;9.41;86.35;100208.28;4989243;28;20053;-77
2023/01/12 09:15:54;;;;;;;4.72;0.52;;;;;;;9.48;86.67;100207.34;4993023;28;20030;-77
2023/01/12 09:18:19;;;;;;;4.55;0.70;;;;;;;9.54;86.23;100207.31;4993364;28;20433;-77
2023/01/12 09:20:44;;;;;;;3.92;0.90;;;;;;;9.48;85.50;100188.91;4993362;28;20595;-77
2023/01/12 09:23:10;;;;;;;7.43;1.40;;;;;;;9.48;86.03;100194.19;4993514;28;20521;-77
2023/01/12 09:25:35;;;;;;;8.07;1.98;;;;;;;9.44;86.29;100187.19;4993040;28;20085;-77
2023/01/12 09:28:00;;;;;;;4.97;1.10;;;;;;;9.51;85.95;100190.66;4993483;28;20026;-77
2023/01/12 09:30:26;;;;;;;4.93;0.73;;;;;;;9.52;85.66;100195.91;4993122;28;20030;-77
2023/01/12 09:32:53;;;;;;;4.82;0.85;;;;;;;9.49;84.66;100192.44;4993139;28;20065;-77
2023/01/12 09:35:20;;;;;;;8.00;1.10;;;;;;;9.55;84.72;100195.03;4992667;28;20261;-77
2023/01/12 09:37:46;;;;;;;6.50;1.08;;;;;;;9.55;84.53;100179.22;4989090;28;20061;-77
2023/01/12 09:40:15;;;;;;;10.80;2.35;;;;;;;9.59;84.23;100171.28;4992990;28;20101;-77
2023/01/12 09:48:18;;;;;;;7.10;1.30;;;;;;;9.56;84.79;100166.03;4992893;28;20034;-78
2023/01/12 09:51:09;;;;;;;8.07;1.98;;;;;;;9.65;84.04;100152.78;4992814;28;20030;-78
2023/01/12 09:53:40;;;;;;;8.13;0.95;;;;;;;9.62;83.69;100152.81;4992143;28;20046;-78
2023/01/12 09:56:28;;;;;;;4.13;0.77;;;;;;;9.64;83.93;100139.59;4992362;28;20038;-78
2023/01/12 09:59:04;;;;;;;8.68;0.93;;;;;;;9.61;83.09;100147.53;4990253;28;20037;-78
2023/01/12 10:01:29;;;;;;;5.45;0.60;;;;;;;9.61;83.53;100137.00;4991964;28;20033;-78
2023/01/12 10:03:58;;;;;;;7.57;2.50;;;;;;;9.62;84.11;100121.19;4992448;28;20038;-78
2023/01/12 10:06:23;;;;;;;2.78;1.13;;;;;;;9.52;83.87;100119.53;4988797;28;20036;-78
2023/01/12 10:08:50;;;;;;;4.03;0.65;;;;;;;9.63;83.20;100122.94;4992667;28;20105;-78
2023/01/12 10:11:47;;;;;;;4.35;0.60;;;;;;;9.64;83.00;100114.16;4991883;28;20049;-78
2023/01/12 10:14:24;;;;;;;5.22;1.02;;;;;;;9.68;82.72;100112.34;4990550;28;20034;-78
2023/01/12 10:17:18;;;;;;;7.50;1.73;;;;;;;9.66;82.77;100115.00;4991754;28;20169;-78
2023/01/12 10:20:08;;;;;;;6.35;0.52;;;;;;;9.80;82.26;100111.38;4987725;28;20125;-78
2023/01/12 10:22:57;;;;;;;3.67;0.70;;;;;;;9.85;83.60;100110.44;4992645;28;20038;-77
2023/01/12 10:25:41;;;;;;;4.63;0.93;;;;;;;9.95;83.23;100113.84;4991884;28;20038;-77
2023/01/12 10:28:28;;;;;;;5.45;0.68;;;;;;;9.98;81.09;100092.75;4991534;28;20063;-77
2023/01/12 10:30:55;;;;;;;7.03;1.33;;;;;;;10.05;81.36;100089.13;4990329;28;20034;-77
2023/01/12 10:33:24;;;;;;;3.83;0.80;;;;;;;10.08;80.19;100091.72;4991208;28;20038;-78
2023/01/12 10:35:51;;;;;;;5.38;1.10;;;;;;;10.10;79.93;100089.94;4986490;28;20061;-78
2023/01/12 10:38:31;;;;;;;7.80;1.67;;;;;;;10.13;80.77;100086.41;4988256;28;20030;-77
2023/01/12 10:41:05;;;;;;;7.30;1.35;;;;;;;10.15;79.97;100070.56;4990520;28;20042;-78
2023/01/12 10:43:33;;;;;;;8.63;1.40;;;;;;;10.15;80.14;100078.50;4992051;28;20416;-77
2023/01/12 10:46:02;;;;;;;5.57;1.00;;;;;;;10.17;80.29;100074.06;4990207;28;20038;-78
2023/01/12 10:48:31;;;;;;;5.75;0.95;;;;;;;10.25;79.79;100075.72;4991786;28;20564;-77
2023/01/12 10:51:02;;;;;;;4.72;1.05;;;;;;;10.33;79.33;100070.38;4974486;28;20058;-77
2023/01/12 10:53:35;;;;;;;6.13;1.10;;;;;;;10.39;79.70;100077.34;4984001;28;20079;-78
2023/01/12 10:56:09;;;;;;;;;;;;;;;10.39;79.77;100067.66;4988498;28;20034;-78
2023/01/12 10:58:35;;;;;;;5.97;1.38;;;;;;;10.42;78.83;100062.34;4991865;28;19921;-77
2023/01/12 11:01:01;;;;;;;8.80;2.35;;;;;;;10.48;78.89;100048.22;4991533;28;20027;-78
2023/01/12 11:03:36;;;;;;;6.55;1.33;;;;;;;10.48;77.56;100057.00;4992146;28;20038;-78
2023/01/12 11:06:30;;;;;;;3.35;0.60;;;;;;;10.69;77.90;100049.69;4988666;28;20041;-79
2023/01/12 11:08:56;;;;;;;5.10;0.77;;;;;;;10.71;77.55;100055.78;4991236;28;20116;-77
2023/01/12 11:11:23;;;;;;;5.18;1.00;;;;;;;10.85;77.05;100052.97;4990205;28;20034;-76
2023/01/12 11:13:53;;;;;;;2.33;0.55;;;;;;;10.88;76.12;100040.59;4991573;28;20045;-77
2023/01/12 11:16:22;;;;;;;3.53;0.63;;;;;;;10.89;75.64;100044.97;4990759;28;20073;-76
2023/01/12 11:18:54;;;;;;;2.15;0.50;;;;;;;10.93;75.51;100038.75;4991078;28;20031;-78
2023/01/12 11:21:24;;;;;;;1.88;0.35;;;;;;;11.12;75.83;100033.19;4986887;28;20469;-77
2023/01/12 11:24:08;;;;;;;7.90;1.00;;;;;;;11.26;75.87;100039.09;4992091;28;20062;-78
2023/01/12 11:26:49;;;;;;;4.18;0.73;;;;;;;11.21;75.34;100032.16;5001108;28;20061;-78
2023/01/12 11:29:33;;;;;;;4.50;0.60;;;;;;;11.12;76.29;100028.75;4997627;28;20445;-77
2023/01/12 11:32:04;;;;;;;6.68;0.70;;;;;;;11.00;75.56;100028.09;5003704;28;20124;-77
2023/01/12 11:34:37;;;;;;;6.25;0.73;;;;;;;11.00;76.65;100026.31;5004877;28;20038;-78
2023/01/12 11:37:11;;;;;;;3.08;0.70;;;;;;;11.08;76.09;100015.63;5003680;28;20029;-77
2023/01/12 11:39:39;;;;;;;4.97;0.35;;;;;;;11.00;75.84;100018.38;5002797;28;20030;-77
2023/01/12 11:45:11;;;;;;;3.22;0.60;;;;;;;10.76;78.95;100014.38;4991980;28;20030;-77
2023/01/12 11:47:44;;;;;;;2.63;0.30;;;;;;;10.75;79.06;100023.19;4993465;28;20508;-77
2023/01/12 11:50:19;;;;;;;2.78;0.68;;;;;;;10.56;81.44;100011.16;4991754;28;20046;-77
2023/01/12 11:52:45;;;;;;;2.70;0.43;;;;;;;10.49;81.77;100011.25;4998279;28;20031;-77
2023/01/12 11:55:18;;;;;;;3.85;0.60;;;;;;;10.54;82.22;100005.91;4995155;28;20501;-77
2023/01/12 11:58:05;;;;;;;2.35;0.40;;;;;;;10.50;82.20;100002.41;4992128;28;20176;-78
2023/01/12 12:00:57;;;;;;;3.90;0.60;;;;;;;10.51;83.09;99998.91;4991379;28;20046;-77
2023/01/12 12:03:41;;;;;;;2.97;0.63;;;;;;;10.49;82.60;99998.06;4992365;28;20054;-76
2023/01/12 12:06:20;;;;;;;1.85;0.30;;;;;;;10.36;82.17;99988.56;4990193;28;20405;-77
2023/01/12 12:09:20;;;;;;;3.05;0.30;;;;;;;10.48;82.92;99998.97;4992865;28;20859;-77
2023/01/12 12:11:58;;;;;;;2.97;0.43;;;;;;;10.39;83.12;99992.94;4991393;28;20065;-77
2023/01/12 12:14:45;;;;;;;1.95;0.40;;;;;;;10.48;83.08;99987.53;4994907;28;20127;-77